createdAt,value
2019-06-09T00:00:12.203Z,80.70
2019-06-09T00:05:17.363Z,83.80
2019-06-09T00:10:24.959Z,82.60
2019-06-09T00:15:28.729Z,81.50
2019-06-09T00:20:32.554Z,82.60
2019-06-09T00:25:38.024Z,84.00
2019-06-09T00:30:44.309Z,84.70
2019-06-09T00:35:49.222Z,84.00
2019-06-09T00:40:52.761Z,83.80
2019-06-09T00:45:57.510Z,83.90
2019-06-09T00:51:09.250Z,85.60
2019-06-09T00:56:09.901Z,85.00
2019-06-09T01:01:14.959Z,84.80
2019-06-09T01:06:20.055Z,84.10
2019-06-09T01:11:29.662Z,81.40
2019-06-09T01:16:33.599Z,82.40
2019-06-09T01:21:38.830Z,85.70
2019-06-09T01:26:42.450Z,84.20
2019-06-09T01:31:48.070Z,84.00
2019-06-09T01:36:51.580Z,85.90
2019-06-09T01:41:57.316Z,83.40
2019-06-09T01:47:00.443Z,83.80
2019-06-09T01:52:07.176Z,82.90
2019-06-09T01:57:11.574Z,80.30
2019-06-09T02:02:32.770Z,80.40
2019-06-09T02:07:23.169Z,79.40
2019-06-09T02:12:28.593Z,79.50
2019-06-09T02:17:33.830Z,80.10
2019-06-09T02:22:37.790Z,79.80
2019-06-09T02:27:42.049Z,81.50
2019-06-09T02:33:05.110Z,82.40
2019-06-09T02:37:55.672Z,81.30
2019-06-09T02:43:01.621Z,80.70
2019-06-09T02:48:04.574Z,81.40
2019-06-09T02:53:11.518Z,84.30
2019-06-09T02:58:13.461Z,85.40
2019-06-09T03:03:32.422Z,84.20
2019-06-09T03:08:26.123Z,82.80
2019-06-09T03:13:31.797Z,82.50
2019-06-09T03:18:40.509Z,82.40
2019-06-09T03:23:44.177Z,83.40
2019-06-09T03:28:44.398Z,83.20
2019-06-09T03:35:18.096Z,84.80
2019-06-09T03:38:57.966Z,86.40
2019-06-09T03:44:01.576Z,88.20
2019-06-09T03:49:04.795Z,88.60
2019-06-09T03:54:12.310Z,86.60
2019-06-09T03:59:14.035Z,87.30
2019-06-09T04:04:17.728Z,88.60
2019-06-09T04:09:22.433Z,88.40
2019-06-09T04:14:31.805Z,88.00
2019-06-09T04:19:39.919Z,89.20
2019-06-09T04:24:42.930Z,90.00
2019-06-09T04:29:43.990Z,90.10
2019-06-09T04:34:47.972Z,90.00
2019-06-09T04:39:52.929Z,91.00
2019-06-09T04:44:56.746Z,91.10
2019-06-09T04:50:03.439Z,91.30
2019-06-09T04:55:06.319Z,91.50
2019-06-09T05:00:16.668Z,91.50
2019-06-09T05:05:15.800Z,91.50
2019-06-09T05:10:22.660Z,91.60
2019-06-09T05:15:25.329Z,91.70
2019-06-09T05:20:30.602Z,92.10
2019-06-09T05:25:39.379Z,91.60
2019-06-09T05:30:41.173Z,90.70
2019-06-09T05:35:47.852Z,89.90
2019-06-09T05:40:51.753Z,89.70
2019-06-09T05:45:55.683Z,87.80
2019-06-09T05:51:01.374Z,86.40
2019-06-09T05:56:04.720Z,90.10
2019-06-09T06:01:08.326Z,88.40
2019-06-09T06:06:11.970Z,87.30
2019-06-09T06:11:15.582Z,87.10
2019-06-09T06:16:21.359Z,88.30
2019-06-09T06:21:26.351Z,89.60
2019-06-09T06:26:30.744Z,88.60
2019-06-09T06:31:35.741Z,86.90
2019-06-09T06:36:41.825Z,85.90
2019-06-09T06:41:46.949Z,87.60
2019-06-09T06:46:55.642Z,86.90
2019-06-09T06:51:55.676Z,87.00
2019-06-09T06:57:00.731Z,87.20
2019-06-09T07:02:04.803Z,86.20
2019-06-09T07:07:20.246Z,85.10
2019-06-09T07:12:13.690Z,83.60
2019-06-09T07:17:17.296Z,81.50
2019-06-09T07:22:21.166Z,84.20
2019-06-09T07:27:26.230Z,84.70
2019-06-09T07:32:31.264Z,84.70
2019-06-09T07:37:35.168Z,84.60
2019-06-09T07:42:41.759Z,83.00
2019-06-09T07:47:45.110Z,84.50
2019-06-09T07:52:56.153Z,84.40
2019-06-09T07:57:54.976Z,84.60
2019-06-09T08:02:58.593Z,88.70
2019-06-09T08:08:02.215Z,89.70
2019-06-09T08:13:06.121Z,90.10
2019-06-09T08:18:11.416Z,90.40
2019-06-09T08:23:15.317Z,88.40
2019-06-09T08:28:27.846Z,89.10
2019-06-09T08:33:32.029Z,87.00
2019-06-09T08:38:52.302Z,86.10
2019-06-09T08:43:45.392Z,87.50
2019-06-09T08:48:52.859Z,89.00
2019-06-09T08:53:55.903Z,87.70
2019-06-09T08:59:01.794Z,90.10
2019-06-09T09:04:05.524Z,89.30
2019-06-09T09:09:21.777Z,90.50
2019-06-09T09:14:14.711Z,90.10
2019-06-09T09:19:18.332Z,89.70
2019-06-09T09:24:51.358Z,88.40
2019-06-09T09:29:27.363Z,87.10
2019-06-09T09:34:31.810Z,88.10
2019-06-09T09:39:36.035Z,87.40
2019-06-09T09:44:41.567Z,83.00
2019-06-09T09:49:45.838Z,83.00
2019-06-09T09:54:52.718Z,80.90
2019-06-09T09:59:56.848Z,83.40
2019-06-09T10:05:01.042Z,81.80
2019-06-09T10:10:07.114Z,82.40
2019-06-09T10:15:12.064Z,81.80
2019-06-09T10:20:18.062Z,83.90
2019-06-09T10:25:23.474Z,86.00
2019-06-09T10:30:27.266Z,86.00
2019-06-09T10:35:31.614Z,86.20
2019-06-09T10:40:35.440Z,84.60
2019-06-09T10:45:40.735Z,84.40
2019-06-09T10:50:44.534Z,86.10
2019-06-09T10:55:48.276Z,84.80
2019-06-09T11:00:54.436Z,84.20
2019-06-09T11:05:57.956Z,85.00
2019-06-09T11:11:02.258Z,83.40
2019-06-09T11:16:06.448Z,81.50
2019-06-09T11:21:10.596Z,83.30
2019-06-09T11:26:14.442Z,86.30
2019-06-09T11:31:18.067Z,85.90
2019-06-09T11:36:22.493Z,87.00
2019-06-09T11:41:26.111Z,86.70
2019-06-09T11:46:31.776Z,87.90
2019-06-09T11:51:35.090Z,89.30
2019-06-09T11:56:41.078Z,88.40
2019-06-09T12:01:44.154Z,87.60
2019-06-09T12:06:47.767Z,85.40
2019-06-09T12:11:52.374Z,88.20
2019-06-09T12:16:56.574Z,89.00
2019-06-09T12:22:03.747Z,90.30
2019-06-09T12:27:07.974Z,90.40
2019-06-09T12:32:11.944Z,89.10
2019-06-09T12:37:17.873Z,90.20
2019-06-09T12:42:21.395Z,88.00
2019-06-09T12:47:25.220Z,89.30
2019-06-09T12:52:31.294Z,90.40
2019-06-09T12:57:34.330Z,90.60
2019-06-09T13:02:38.023Z,90.40
2019-06-09T13:07:41.913Z,90.80
2019-06-09T13:12:45.618Z,90.60
2019-06-09T13:17:49.340Z,91.70
2019-06-09T13:22:56.050Z,91.50
2019-06-09T13:28:01.622Z,91.80
2019-06-09T13:33:06.087Z,91.80
2019-06-09T13:38:12.932Z,92.40
2019-06-09T13:43:15.846Z,93.60
2019-06-09T13:48:21.078Z,93.90
2019-06-09T13:53:24.767Z,93.30
2019-06-09T13:58:28.401Z,94.40
2019-06-09T14:03:32.299Z,95.10
2019-06-09T14:08:35.950Z,95.60
2019-06-09T14:13:40.050Z,95.80
2019-06-09T14:18:43.771Z,97.10
2019-06-09T14:23:47.953Z,98.30
2019-06-09T14:28:51.591Z,97.50
2019-06-09T14:33:55.198Z,98.40
2019-06-09T14:38:58.835Z,99.40
2019-06-09T14:44:02.476Z,99.10
2019-06-09T14:49:06.183Z,99.30
2019-06-09T14:54:12.058Z,99.90
2019-06-09T14:59:16.242Z,99.90
2019-06-09T15:04:21.748Z,99.90
2019-06-09T15:09:25.859Z,99.90
2019-06-09T15:14:29.501Z,99.90
2019-06-09T15:19:33.128Z,99.90
2019-06-09T15:24:36.755Z,99.90
2019-06-09T15:29:41.605Z,99.90
2019-06-09T15:34:45.417Z,99.90
2019-06-09T15:39:50.638Z,99.90
2019-06-09T15:44:54.466Z,99.90
2019-06-09T15:49:58.090Z,99.90
2019-06-09T15:55:01.809Z,99.90
2019-06-09T16:00:12.555Z,99.90
2019-06-09T16:05:15.504Z,99.90
2019-06-09T16:10:24.156Z,99.90
2019-06-09T16:15:27.486Z,99.90
2019-06-09T16:20:31.802Z,99.90
2019-06-09T16:25:35.575Z,99.90
2019-06-09T16:30:41.437Z,99.90
2019-06-09T16:35:44.557Z,99.90
2019-06-09T16:40:48.203Z,99.90
2019-06-09T16:45:51.848Z,99.90
2019-06-09T16:51:00.741Z,99.90
2019-06-09T16:56:00.830Z,99.90
2019-06-09T17:01:04.597Z,99.90
2019-06-09T17:06:08.242Z,99.90
2019-06-09T17:11:11.953Z,99.90
2019-06-09T17:16:15.585Z,99.90
2019-06-09T17:21:21.215Z,99.90
2019-06-09T17:26:25.139Z,99.90
2019-06-09T17:31:33.084Z,99.90
2019-06-09T17:36:35.190Z,99.90
2019-06-09T17:41:38.815Z,99.90
2019-06-09T17:46:44.095Z,99.90
2019-06-09T17:51:47.792Z,99.90
2019-06-09T17:56:51.929Z,99.90
2019-06-09T18:01:55.640Z,99.90
2019-06-09T18:06:59.252Z,99.90
2019-06-09T18:12:03.156Z,99.90
2019-06-09T18:17:06.843Z,99.90
2019-06-09T18:22:16.652Z,99.90
2019-06-09T18:27:15.891Z,99.90
2019-06-09T18:32:21.492Z,99.90
2019-06-09T18:37:27.797Z,99.90
2019-06-09T18:42:33.358Z,99.90
2019-06-09T18:47:38.390Z,99.90
2019-06-09T18:52:45.156Z,99.90
2019-06-09T18:57:47.334Z,99.90
2019-06-09T19:02:51.031Z,99.90
2019-06-09T19:07:54.665Z,99.90
2019-06-09T19:12:58.323Z,99.90
2019-06-09T19:18:02.119Z,99.90
2019-06-09T19:23:05.807Z,99.90
2019-06-09T19:28:28.766Z,99.90
2019-06-09T19:33:34.891Z,99.90
2019-06-09T19:38:40.782Z,99.90
2019-06-09T19:43:49.289Z,99.90
2019-06-09T19:48:51.944Z,99.90
2019-06-09T19:53:54.694Z,99.90
2019-06-09T19:58:59.165Z,99.90
2019-06-09T20:04:02.937Z,99.90
2019-06-09T20:09:08.118Z,99.90
2019-06-09T20:14:11.886Z,99.90
2019-06-09T20:19:15.647Z,99.90
2019-06-09T20:24:21.352Z,99.90
2019-06-09T20:29:24.625Z,99.90
2019-06-09T20:34:28.245Z,99.90
2019-06-09T20:39:38.142Z,99.90
2019-06-09T20:44:38.134Z,99.90
2019-06-09T20:49:45.370Z,99.90
2019-06-09T20:54:49.415Z,99.90
2019-06-09T20:59:55.104Z,99.90
2019-06-09T21:05:01.153Z,99.90
2019-06-09T21:10:06.124Z,99.90
2019-06-09T21:15:10.899Z,99.90
2019-06-09T21:20:14.885Z,99.90
2019-06-09T21:25:18.587Z,99.90
2019-06-09T21:30:33.476Z,99.90
2019-06-09T21:35:37.691Z,99.90
2019-06-09T21:40:41.485Z,99.90
2019-06-09T21:45:46.008Z,99.90
2019-06-09T21:50:53.373Z,99.90
2019-06-09T21:55:56.775Z,99.90
2019-06-09T22:01:00.790Z,99.90
2019-06-09T22:06:07.157Z,99.90
2019-06-09T22:11:17.410Z,99.90
2019-06-09T22:16:24.118Z,99.90
2019-06-09T22:21:27.762Z,99.90
2019-06-09T22:26:33.514Z,99.90
2019-06-09T22:31:37.156Z,99.90
2019-06-09T22:36:41.412Z,99.90
2019-06-09T22:41:45.114Z,99.90
2019-06-09T22:47:12.255Z,99.90
2019-06-09T22:51:58.428Z,99.90
2019-06-09T22:57:03.907Z,99.90
2019-06-09T23:02:11.996Z,99.90
2019-06-09T23:07:18.380Z,99.90
2019-06-09T23:12:22.002Z,99.90
2019-06-09T23:17:25.665Z,99.90
2019-06-09T23:22:31.476Z,99.90
2019-06-09T23:27:35.249Z,99.90
2019-06-09T23:32:52.552Z,99.90
2019-06-09T23:37:57.083Z,99.90
2019-06-09T23:43:02.517Z,99.90
2019-06-09T23:48:11.433Z,99.90
2019-06-09T23:53:14.520Z,99.90
2019-06-09T23:58:18.124Z,99.90
